Time;durP1;ratioP1;P1;durP2;ratioP2;P2;SDS_P1;SDS_P2;PMS_P1;PMS_P2;Temp;Humidity;BMP_temperature;BMP_pressure;BME280_temperature;BME280_humidity;BME280_pressure;Samples;Min_cycle;Max_cycle;Signal;HPM_P1;HPM_P2
2024/03/18 00:02:01;;;;;;;9.57;8.13;;;9.70;1.00;;;;;;7380300;19;20010;-72
2024/03/18 00:04:30;;;;;;;11.35;8.30;;;9.70;1.00;;;;;;7376963;19;19998;-73
2024/03/18 00:06:59;;;;;;;9.80;8.10;;;9.70;1.00;;;;;;7379678;19;20010;-73
2024/03/18 00:09:27;;;;;;;13.35;9.30;;;9.70;1.00;;;;;;7379997;19;20009;-74
2024/03/18 00:11:56;;;;;;;12.55;9.02;;;9.80;1.00;;;;;;7380280;19;20006;-72
2024/03/18 00:14:25;;;;;;;11.48;9.30;;;9.60;1.00;;;;;;7379416;19;20470;-72
2024/03/18 00:16:57;;;;;;;12.13;9.20;;;9.60;1.00;;;;;;7378987;19;20017;-72
2024/03/18 00:19:26;;;;;;;10.98;9.13;;;9.70;1.00;;;;;;7382178;19;20003;-72
2024/03/18 00:21:55;;;;;;;10.68;9.48;;;9.60;1.00;;;;;;7381034;19;20010;-71
2024/03/18 00:24:24;;;;;;;9.73;8.43;;;9.60;1.00;;;;;;7379528;19;20033;-71
2024/03/18 00:26:53;;;;;;;14.15;9.40;;;9.50;1.00;;;;;;7378427;19;20014;-71
2024/03/18 00:29:22;;;;;;;11.40;9.30;;;9.60;6.80;;;;;;7378485;19;20362;-71
2024/03/18 00:31:51;;;;;;;12.32;9.25;;;9.60;10.70;;;;;;7378188;19;20478;-71
2024/03/18 00:34:22;;;;;;;11.20;9.98;;;9.60;10.60;;;;;;7375856;19;19998;-72
2024/03/18 00:36:53;;;;;;;11.73;9.82;;;9.50;10.10;;;;;;7376673;19;20010;-72
2024/03/18 00:39:22;;;;;;;13.85;10.63;;;9.50;26.50;;;;;;7379041;19;20010;-72
2024/03/18 00:41:48;;;;;;;12.85;10.02;;;9.50;43.30;;;;;;7379397;19;20010;-72
2024/03/18 00:44:19;;;;;;;11.75;9.57;;;9.50;49.60;;;;;;7378776;19;20041;-72
2024/03/18 00:46:47;;;;;;;11.38;9.82;;;9.40;48.00;;;;;;7374163;19;20011;-71
2024/03/18 00:49:16;;;;;;;11.80;10.27;;;9.50;53.90;;;;;;7377972;19;20002;-71
2024/03/18 00:51:48;;;;;;;11.50;10.00;;;9.60;59.20;;;;;;7377501;19;19998;-72
2024/03/18 00:54:18;;;;;;;12.27;10.70;;;9.60;63.60;;;;;;7378513;19;20010;-72
2024/03/18 00:56:47;;;;;;;12.95;10.40;;;9.60;66.60;;;;;;7377986;19;20015;-72
2024/03/18 00:59:16;;;;;;;12.77;10.30;;;9.60;69.40;;;;;;7378873;19;20005;-72
2024/03/18 01:01:45;;;;;;;12.00;10.50;;;9.60;69.50;;;;;;7378183;19;20043;-71
2024/03/18 01:04:14;;;;;;;12.65;10.73;;;9.70;69.70;;;;;;7376734;19;20347;-71
2024/03/18 01:06:43;;;;;;;12.57;10.82;;;9.70;70.50;;;;;;7377279;19;20030;-72
2024/03/18 01:09:16;;;;;;;10.40;8.88;;;9.60;62.50;;;;;;7377282;19;20006;-72
2024/03/18 01:11:45;;;;;;;10.48;9.27;;;9.50;71.30;;;;;;7376878;19;20010;-71
2024/03/18 01:14:14;;;;;;;13.13;9.80;;;9.60;76.40;;;;;;7376575;19;20014;-72
2024/03/18 01:16:43;;;;;;;13.50;9.23;;;9.50;78.60;;;;;;7375884;19;20272;-71
2024/03/18 01:19:12;;;;;;;10.55;9.43;;;9.50;78.50;;;;;;7377953;19;20015;-71
2024/03/18 01:21:41;;;;;;;12.25;10.27;;;9.60;85.00;;;;;;7377371;19;20017;-71
2024/03/18 01:24:10;;;;;;;13.40;9.90;;;9.50;78.60;;;;;;7376024;19;20027;-71
2024/03/18 01:26:41;;;;;;;11.23;9.73;;;9.60;84.60;;;;;;7375908;19;20031;-71
2024/03/18 01:29:10;;;;;;;10.32;9.20;;;9.50;80.80;;;;;;7375963;19;20010;-75
2024/03/18 01:31:40;;;;;;;11.80;9.80;;;9.50;77.00;;;;;;7376505;19;20043;-71
2024/03/18 01:34:12;;;;;;;12.73;10.52;;;9.50;80.60;;;;;;7376678;19;20447;-71
2024/03/18 01:36:41;;;;;;;12.73;10.57;;;9.50;86.50;;;;;;7375047;19;20027;-72
2024/03/18 01:39:17;;;;;;;17.52;10.75;;;9.70;81.70;;;;;;7375769;19;20035;-70
2024/03/18 01:41:49;;;;;;;13.82;10.48;;;9.70;58.50;;;;;;7377282;19;20010;-71
2024/03/18 01:44:19;;;;;;;12.10;10.73;;;9.70;37.50;;;;;;7377412;19;20464;-71
2024/03/18 01:46:47;;;;;;;12.57;10.73;;;9.80;31.30;;;;;;7376396;19;20093;-71
2024/03/18 01:49:16;;;;;;;14.98;11.38;;;9.70;18.70;;;;;;7377437;19;20062;-71
2024/03/18 01:51:45;;;;;;;14.02;10.32;;;9.60;18.10;;;;;;7377233;19;20049;-71
2024/03/18 01:54:14;;;;;;;12.13;10.55;;;9.50;27.30;;;;;;7376828;19;20010;-72
2024/03/18 01:56:43;;;;;;;13.98;10.38;;;9.50;43.70;;;;;;7376509;19;20011;-72
2024/03/18 01:59:15;;;;;;;12.80;10.40;;;9.50;49.30;;;;;;7377049;19;20006;-72
2024/03/18 02:01:43;;;;;;;11.98;10.07;;;9.50;62.60;;;;;;7376838;19;20012;-71
2024/03/18 02:04:13;;;;;;;14.05;11.52;;;9.50;77.60;;;;;;7375892;19;20349;-72
2024/03/18 02:06:44;;;;;;;13.10;10.82;;;9.40;82.40;;;;;;7374201;19;20451;-70
2024/03/18 02:09:15;;;;;;;13.23;11.25;;;9.40;87.00;;;;;;7376345;19;20015;-71
2024/03/18 02:11:44;;;;;;;12.43;11.02;;;9.30;88.40;;;;;;7378167;19;20028;-71
2024/03/18 02:14:18;;;;;;;15.18;11.50;;;9.40;93.60;;;;;;7376706;19;20002;-71
2024/03/18 02:16:47;;;;;;;14.98;11.50;;;9.50;92.40;;;;;;7372639;19;20011;-71
2024/03/18 02:19:16;;;;;;;12.13;10.40;;;9.40;91.50;;;;;;7376310;19;20010;-71
2024/03/18 02:21:45;;;;;;;15.13;11.55;;;9.40;91.30;;;;;;7376311;19;20010;-71
2024/03/18 02:24:18;;;;;;;14.43;11.68;;;9.40;90.30;;;;;;7376009;19;20043;-71
2024/03/18 02:26:47;;;;;;;17.20;12.90;;;9.40;96.20;;;;;;7375012;19;20017;-71
2024/03/18 02:29:16;;;;;;;13.32;11.88;;;9.40;93.70;;;;;;7375029;19;20031;-71
2024/03/18 02:31:45;;;;;;;13.68;12.25;;;9.40;92.10;;;;;;7375023;19;20031;-70
2024/03/18 02:34:14;;;;;;;14.35;11.98;;;9.40;80.90;;;;;;7375573;19;20017;-71
2024/03/18 02:36:43;;;;;;;16.85;12.13;;;9.40;73.80;;;;;;7374109;19;20459;-71
2024/03/18 02:39:17;;;;;;;17.80;11.98;;;9.50;75.60;;;;;;7375220;19;20014;-71
2024/03/18 02:41:46;;;;;;;14.60;11.75;;;9.50;82.70;;;;;;7375340;19;20074;-71
2024/03/18 02:44:16;;;;;;;16.38;12.43;;;9.50;91.10;;;;;;7374753;19;20002;-71
2024/03/18 02:46:45;;;;;;;14.20;11.75;;;9.50;96.60;;;;;;7372983;19;20091;-71
2024/03/18 02:49:14;;;;;;;12.25;9.63;;;9.50;97.10;;;;;;7372133;19;20047;-72
2024/03/18 02:51:43;;;;;;;10.45;8.32;;;9.40;92.50;;;;;;7373291;19;20443;-72
2024/03/18 02:54:12;;;;;;;12.30;9.00;;;9.40;83.40;;;;;;7375330;19;20026;-70
2024/03/18 02:56:44;;;;;;;12.63;8.90;;;9.40;81.10;;;;;;7375175;19;20002;-71
2024/03/18 02:59:13;;;;;;;12.60;8.52;;;9.40;71.90;;;;;;7383447;19;20071;-71
2024/03/18 03:01:42;;;;;;;11.65;7.65;;;9.50;68.50;;;;;;7381933;19;20014;-71
2024/03/18 03:04:11;;;;;;;11.20;8.57;;;9.50;62.20;;;;;;7379787;19;20433;-72
2024/03/18 03:06:40;;;;;;;12.27;8.05;;;9.50;47.90;;;;;;7375203;19;20010;-72
2024/03/18 03:09:09;;;;;;;11.23;8.02;;;9.50;45.10;;;;;;7380959;19;20025;-71
2024/03/18 03:11:38;;;;;;;9.10;7.72;;;9.50;44.20;;;;;;7380757;19;20017;-70
2024/03/18 03:14:10;;;;;;;10.98;8.18;;;9.50;41.40;;;;;;7380287;19;20340;-73
2024/03/18 03:16:39;;;;;;;10.82;8.00;;;9.50;37.60;;;;;;7379704;19;20098;-71
2024/03/18 03:19:09;;;;;;;9.55;8.52;;;9.50;40.40;;;;;;7380577;19;20007;-71
2024/03/18 03:21:38;;;;;;;13.35;8.68;;;9.50;39.40;;;;;;7380297;19;20006;-71
2024/03/18 03:24:07;;;;;;;10.93;8.80;;;9.50;37.00;;;;;;7380455;19;20006;-70
2024/03/18 03:26:36;;;;;;;11.35;9.40;;;9.50;38.80;;;;;;7379668;19;20018;-70
2024/03/18 03:29:06;;;;;;;13.13;8.48;;;9.60;41.30;;;;;;7382856;19;20035;-72
2024/03/18 03:31:37;;;;;;;11.00;8.98;;;9.50;39.20;;;;;;7382015;19;20002;-70
2024/03/18 03:34:06;;;;;;;11.77;8.75;;;9.40;42.30;;;;;;7379205;19;20031;-71
2024/03/18 03:36:39;;;;;;;14.18;9.05;;;9.40;55.60;;;;;;7383238;19;20043;-70
2024/03/18 03:39:08;;;;;;;9.85;8.13;;;9.30;57.20;;;;;;7378043;19;20011;-71
2024/03/18 03:41:37;;;;;;;10.27;8.35;;;9.40;60.40;;;;;;7380268;19;20010;-71
2024/03/18 03:44:07;;;;;;;10.48;8.45;;;9.30;63.10;;;;;;7382712;19;20015;-71
2024/03/18 03:46:38;;;;;;;11.43;8.70;;;9.30;60.80;;;;;;7380184;19;20018;-71
2024/03/18 03:49:07;;;;;;;10.85;7.97;;;9.40;70.30;;;;;;7379710;19;20010;-70
2024/03/18 03:51:36;;;;;;;10.30;8.07;;;9.40;65.80;;;;;;7384162;19;20010;-70
2024/03/18 03:54:05;;;;;;;11.32;8.50;;;9.30;66.10;;;;;;7380505;19;20006;-71
2024/03/18 03:56:34;;;;;;;9.65;8.25;;;9.40;67.30;;;;;;7378939;19;20379;-70
2024/03/18 03:59:03;;;;;;;11.55;9.18;;;9.50;71.00;;;;;;7381504;19;20683;-72
2024/03/18 04:01:32;;;;;;;10.63;9.07;;;9.50;68.60;;;;;;7378525;19;20014;-70
2024/03/18 04:04:03;;;;;;;12.75;9.07;;;9.50;68.10;;;;;;7380945;19;20376;-71
2024/03/18 04:06:33;;;;;;;11.65;8.82;;;9.50;64.10;;;;;;7379057;19;20014;-71
2024/03/18 04:09:02;;;;;;;12.77;9.38;;;9.50;59.90;;;;;;7381435;19;20002;-70
2024/03/18 04:11:31;;;;;;;12.18;9.85;;;9.50;56.60;;;;;;7379864;19;20021;-71
2024/03/18 04:14:00;;;;;;;12.18;10.00;;;9.50;55.50;;;;;;7379676;19;20010;-71
2024/03/18 04:16:29;;;;;;;11.38;9.75;;;9.50;54.20;;;;;;7379401;19;19998;-73
2024/03/18 04:18:58;;;;;;;15.25;10.60;;;9.50;56.30;;;;;;7380332;19;20352;-72
2024/03/18 04:21:30;;;;;;;14.43;10.63;;;9.50;62.50;;;;;;7378947;19;20083;-71
2024/03/18 04:24:02;;;;;;;11.98;9.90;;;9.40;63.10;;;;;;7380286;19;20070;-72
2024/03/18 04:26:32;;;;;;;12.48;10.07;;;9.40;68.50;;;;;;7378453;19;20013;-71
2024/03/18 04:29:01;;;;;;;12.90;10.23;;;9.40;77.20;;;;;;7380341;19;19998;-70
2024/03/18 04:31:29;;;;;;;13.90;10.68;;;9.40;78.10;;;;;;7380941;19;20035;-72
2024/03/18 04:33:58;;;;;;;14.73;11.38;;;9.30;87.90;;;;;;7379923;19;20002;-71
2024/03/18 04:36:30;;;;;;;12.75;10.82;;;9.30;91.20;;;;;;7379055;19;20023;-72
2024/03/18 04:38:59;;;;;;;13.82;10.52;;;9.40;97.10;;;;;;7379682;19;20046;-71
2024/03/18 04:41:28;;;;;;;16.50;11.60;;;9.40;98.20;;;;;;7378255;19;20044;-71
2024/03/18 04:43:57;;;;;;;14.63;11.65;;;9.40;97.50;;;;;;7377903;19;20401;-72
2024/03/18 04:46:26;;;;;;;14.07;10.88;;;9.50;93.00;;;;;;7376724;19;20508;-71
2024/03/18 04:48:55;;;;;;;16.52;11.50;;;9.50;93.40;;;;;;7378904;19;20466;-71
2024/03/18 04:51:24;;;;;;;14.35;10.95;;;9.40;91.70;;;;;;7380182;19;20040;-71
2024/03/18 04:53:56;;;;;;;15.48;10.75;;;9.50;90.80;;;;;;7377897;19;20031;-73
2024/03/18 04:56:24;;;;;;;13.75;10.80;;;9.50;91.50;;;;;;7377362;19;20010;-71
2024/03/18 04:58:53;;;;;;;13.25;11.02;;;9.50;90.10;;;;;;7376102;19;20031;-71
2024/03/18 05:01:22;;;;;;;12.77;10.73;;;9.60;91.40;;;;;;7378003;19;20021;-71
2024/03/18 05:03:51;;;;;;;12.75;11.02;;;9.50;84.20;;;;;;7378011;19;20348;-72
2024/03/18 05:06:20;;;;;;;13.45;11.05;;;9.60;88.80;;;;;;7375241;19;20027;-71
2024/03/18 05:08:50;;;;;;;14.75;11.23;;;9.60;84.20;;;;;;7378073;19;20463;-71
2024/03/18 05:11:21;;;;;;;12.35;10.85;;;9.50;82.10;;;;;;7374642;19;20013;-72
2024/03/18 05:13:50;;;;;;;21.75;11.32;;;9.50;80.30;;;;;;7378021;19;20478;-71
2024/03/18 05:16:19;;;;;;;14.75;11.40;;;9.50;85.90;;;;;;7375947;19;20035;-71
2024/03/18 05:18:48;;;;;;;12.82;11.32;;;9.50;85.50;;;;;;7377225;19;20014;-70
2024/03/18 05:21:17;;;;;;;13.70;10.43;;;9.50;82.10;;;;;;7376064;19;20010;-74
2024/03/18 05:23:46;;;;;;;13.45;11.68;;;9.60;90.00;;;;;;7378226;19;20090;-72
2024/03/18 05:26:15;;;;;;;17.02;11.50;;;9.60;88.10;;;;;;7354593;19;20011;-74
2024/03/18 05:28:47;;;;;;;16.35;11.07;;;9.60;83.90;;;;;;7377626;19;20023;-75
2024/03/18 05:31:16;;;;;;;16.80;11.93;;;9.60;77.50;;;;;;7380146;19;20007;-72
2024/03/18 05:33:45;;;;;;;15.75;12.13;;;9.60;71.30;;;;;;7378902;19;20006;-71
2024/03/18 05:36:14;;;;;;;14.25;11.43;;;9.70;69.90;;;;;;7376600;19;20471;-72
2024/03/18 05:38:43;;;;;;;14.27;10.98;;;9.60;68.10;;;;;;7376569;19;20010;-72
2024/03/18 05:41:11;;;;;;;14.80;11.23;;;9.60;64.40;;;;;;7375444;19;20007;-72
2024/03/18 05:43:40;;;;;;;16.08;11.90;;;9.60;66.60;;;;;;7373511;19;20387;-72
2024/03/18 05:46:14;;;;;;;13.75;11.13;;;9.60;70.60;;;;;;7373285;19;20070;-73
2024/03/18 05:48:43;;;;;;;13.73;11.07;;;9.60;72.50;;;;;;7373892;19;20019;-72
2024/03/18 05:51:12;;;;;;;15.73;11.07;;;9.70;71.60;;;;;;7372642;19;20025;-72
2024/03/18 05:53:41;;;;;;;13.35;11.40;;;9.70;69.80;;;;;;7377008;19;20019;-72
2024/03/18 05:56:10;;;;;;;17.83;15.93;;;9.70;68.80;;;;;;7371390;19;20018;-73
2024/03/18 05:58:39;;;;;;;17.08;12.18;;;9.70;66.60;;;;;;7378156;19;20003;-71
2024/03/18 06:01:10;;;;;;;13.00;11.38;;;9.70;70.00;;;;;;7376926;19;20021;-71
2024/03/18 06:03:43;;;;;;;10.10;8.75;;;9.70;70.30;;;;;;7376867;19;20006;-72
2024/03/18 06:06:12;;;;;;;11.55;8.80;;;9.70;68.70;;;;;;7370825;19;20018;-71
2024/03/18 06:08:41;;;;;;;11.57;9.25;;;9.70;73.20;;;;;;7373717;19;20011;-72
2024/03/18 06:11:11;;;;;;;14.40;9.88;;;9.60;75.30;;;;;;7379721;19;20015;-72
2024/03/18 06:13:40;;;;;;;13.85;10.40;;;9.40;80.80;;;;;;7377754;19;20021;-72
2024/03/18 06:16:09;;;;;;;12.30;10.10;;;9.50;93.10;;;;;;7375809;19;20056;-72
2024/03/18 06:18:38;;;;;;;11.77;9.55;;;9.50;99.90;;;;;;7375691;19;20014;-72
2024/03/18 06:21:16;;;;;;;12.95;9.95;;;9.60;99.90;;;;;;7377350;19;20010;-73
2024/03/18 06:23:47;;;;;;;15.38;11.57;;;9.60;99.90;;;;;;7371538;19;20873;-71
2024/03/18 06:26:13;;;;;;;15.75;10.77;;;9.60;99.90;;;;;;7374984;19;20010;-71
2024/03/18 06:28:43;;;;;;;19.10;11.48;;;9.60;99.90;;;;;;7379352;19;20369;-70
2024/03/18 06:31:13;;;;;;;11.95;10.65;;;9.70;99.20;;;;;;7378073;19;20015;-71
2024/03/18 06:33:43;;;;;;;14.45;9.85;;;9.70;99.90;;;;;;7383029;19;20002;-71
2024/03/18 06:36:15;;;;;;;10.82;9.38;;;9.70;92.80;;;;;;7382349;19;20011;-71
2024/03/18 06:38:44;;;;;;;11.95;9.57;;;9.70;95.80;;;;;;7383714;19;20010;-72
2024/03/18 06:41:13;;;;;;;11.38;9.90;;;9.60;82.10;;;;;;7383264;19;20079;-72
2024/03/18 06:43:45;;;;;;;12.95;10.50;;;9.60;93.10;;;;;;7383910;19;20006;-71
2024/03/18 06:46:16;;;;;;;13.23;10.00;;;9.60;99.10;;;;;;7383309;19;20015;-71
2024/03/18 06:48:45;;;;;;;14.20;10.15;;;9.60;99.90;;;;;;7386603;19;20368;-72
2024/03/18 06:51:17;;;;;;;14.40;10.52;;;9.70;99.90;;;;;;7384180;19;20007;-71
2024/03/18 06:53:46;;;;;;;13.07;10.30;;;9.70;99.90;;;;;;7383572;19;20014;-72
2024/03/18 06:56:17;;;;;;;12.60;10.93;;;9.80;99.90;;;;;;7382225;19;20088;-72
2024/03/18 06:58:46;;;;;;;15.15;11.18;;;9.90;99.90;;;;;;7383972;19;20048;-71
2024/03/18 07:01:15;;;;;;;12.65;9.93;;;9.80;99.90;;;;;;7383272;19;20357;-71
2024/03/18 07:03:44;;;;;;;12.93;10.88;;;9.80;99.90;;;;;;7387081;19;20002;-71
2024/03/18 07:06:12;;;;;;;15.25;10.45;;;9.90;99.90;;;;;;7381993;19;20031;-71
2024/03/18 07:08:45;;;;;;;14.70;11.13;;;10.00;99.60;;;;;;7383411;19;20017;-72
2024/03/18 07:11:16;;;;;;;17.70;12.10;;;10.00;91.60;;;;;;7382170;19;20006;-71
2024/03/18 07:13:46;;;;;;;14.25;11.82;;;10.10;92.40;;;;;;7380998;19;20002;-71
2024/03/18 07:16:16;;;;;;;13.55;11.52;;;10.10;92.70;;;;;;7383198;19;20351;-70
2024/03/18 07:18:45;;;;;;;15.27;12.23;;;10.10;91.30;;;;;;7384383;19;20011;-72
2024/03/18 07:21:14;;;;;;;21.70;13.07;;;10.10;93.60;;;;;;7383960;19;20472;-71
2024/03/18 07:23:45;;;;;;;17.67;13.35;;;10.00;91.90;;;;;;7384891;19;20006;-72
2024/03/18 07:26:14;;;;;;;19.50;13.07;;;10.00;96.40;;;;;;7381976;19;20523;-74
2024/03/18 07:28:44;;;;;;;17.25;11.85;;;10.00;90.30;;;;;;7382722;19;20852;-71
2024/03/18 07:31:13;;;;;;;18.20;12.98;;;10.00;93.20;;;;;;7378075;19;20014;-71
2024/03/18 07:33:45;;;;;;;17.23;12.88;;;10.10;98.90;;;;;;7383189;19;20398;-71
2024/03/18 07:36:14;;;;;;;21.33;13.45;;;10.10;99.90;;;;;;7379002;19;20501;-71
2024/03/18 07:38:46;;;;;;;16.85;13.20;;;10.10;99.90;;;;;;7382730;19;20471;-71
2024/03/18 07:41:15;;;;;;;19.50;13.68;;;10.10;99.90;;;;;;7381512;19;20071;-71
2024/03/18 07:43:47;;;;;;;17.42;13.45;;;10.10;99.90;;;;;;7381941;19;20461;-71
2024/03/18 07:46:17;;;;;;;18.40;13.35;;;10.10;99.90;;;;;;7375785;19;20396;-72
2024/03/18 07:48:47;;;;;;;21.05;13.88;;;10.10;99.90;;;;;;7383992;19;20364;-70
2024/03/18 07:51:16;;;;;;;16.85;12.95;;;10.10;99.90;;;;;;7384618;19;20022;-71
2024/03/18 07:53:47;;;;;;;17.35;14.02;;;10.10;99.90;;;;;;7380630;19;20026;-70
2024/03/18 07:56:16;;;;;;;15.40;12.98;;;10.20;99.90;;;;;;7377740;19;20006;-71
2024/03/18 07:58:45;;;;;;;27.27;12.95;;;10.20;99.90;;;;;;7377175;19;20010;-71
2024/03/18 08:01:14;;;;;;;14.27;11.57;;;10.10;99.90;;;;;;7378122;19;20003;-71
2024/03/18 08:03:43;;;;;;;17.40;12.27;;;10.30;99.90;;;;;;7377258;19;20493;-73
2024/03/18 08:06:13;;;;;;;18.10;13.30;;;10.30;99.90;;;;;;7375769;19;20492;-72
2024/03/18 08:08:42;;;;;;;16.25;12.57;;;10.40;99.90;;;;;;7378924;19;20482;-72
2024/03/18 08:11:14;;;;;;;15.48;12.45;;;10.20;99.90;;;;;;7381069;19;20002;-72
2024/03/18 08:13:43;;;;;;;18.73;13.23;;;10.10;99.90;;;;;;7382874;19;20010;-72
2024/03/18 08:16:12;;;;;;;20.00;12.88;;;10.10;99.90;;;;;;7378192;19;20019;-74
2024/03/18 08:18:41;;;;;;;15.80;11.60;;;10.10;99.90;;;;;;7380743;19;20519;-73
2024/03/18 08:21:10;;;;;;;15.60;13.30;;;10.20;99.90;;;;;;7382032;19;20014;-72
2024/03/18 08:23:39;;;;;;;17.60;12.48;;;10.10;99.90;;;;;;7381310;19;20002;-73
2024/03/18 08:26:08;;;;;;;16.08;12.73;;;9.90;99.90;;;;;;7379328;19;20007;-73
2024/03/18 08:28:39;;;;;;;14.85;11.93;;;9.90;99.90;;;;;;7382081;19;20014;-72
2024/03/18 08:31:10;;;;;;;16.00;12.90;;;9.80;99.90;;;;;;7380727;19;20463;-72
2024/03/18 08:33:39;;;;;;;20.42;13.35;;;9.80;99.90;;;;;;7381664;19;20380;-73
2024/03/18 08:36:08;;;;;;;16.17;13.27;;;9.80;99.90;;;;;;7379612;19;20128;-72
2024/03/18 08:38:38;;;;;;;16.63;13.77;;;9.80;99.90;;;;;;7379351;19;20018;-72
2024/03/18 08:41:07;;;;;;;18.52;13.10;;;9.80;99.90;;;;;;7378736;19;20534;-72
2024/03/18 08:43:38;;;;;;;14.98;12.65;;;9.80;99.90;;;;;;7378987;19;20014;-73
2024/03/18 08:46:08;;;;;;;16.15;13.10;;;9.80;99.90;;;;;;7378013;19;20078;-72
2024/03/18 08:48:39;;;;;;;14.95;12.77;;;9.80;99.90;;;;;;7378637;19;20091;-72
2024/03/18 08:51:08;;;;;;;16.63;14.52;;;9.70;99.90;;;;;;7378874;19;20034;-72
2024/03/18 08:53:37;;;;;;;17.20;13.88;;;9.80;99.90;;;;;;7377175;19;20006;-73
2024/03/18 08:56:06;;;;;;;18.08;14.93;;;9.80;99.90;;;;;;7372941;19;20010;-74
2024/03/18 08:58:39;;;;;;;17.38;15.45;;;9.80;99.90;;;;;;7377188;19;20006;-73
2024/03/18 09:01:08;;;;;;;19.23;14.38;;;9.90;99.90;;;;;;7380078;19;20011;-72
2024/03/18 09:03:37;;;;;;;15.63;13.82;;;10.00;99.90;;;;;;7379220;19;20010;-72
2024/03/18 09:06:07;;;;;;;17.42;13.85;;;10.00;99.90;;;;;;7377397;19;20007;-73
2024/03/18 09:08:37;;;;;;;15.75;13.65;;;10.10;99.90;;;;;;7377906;19;20003;-72
2024/03/18 09:11:06;;;;;;;19.65;13.75;;;10.10;99.90;;;;;;7378547;19;20010;-72
2024/03/18 09:13:39;;;;;;;18.77;14.15;;;10.20;99.90;;;;;;7378100;19;20454;-73
2024/03/18 09:16:08;;;;;;;18.38;13.27;;;10.20;99.90;;;;;;7378476;19;20040;-72
2024/03/18 09:18:37;;;;;;;16.15;14.13;;;10.40;99.90;;;;;;7379420;19;19998;-72
2024/03/18 09:21:06;;;;;;;15.38;13.68;;;10.50;99.90;;;;;;7378962;19;20478;-72
2024/03/18 09:23:35;;;;;;;17.08;13.48;;;10.70;99.90;;;;;;7377943;19;20010;-72
2024/03/18 09:26:04;;;;;;;22.58;13.60;;;10.90;99.90;;;;;;7377089;19;20022;-72
2024/03/18 09:28:33;;;;;;;15.27;13.68;;;10.90;99.90;;;;;;7377333;19;20014;-73
2024/03/18 09:31:07;;;;;;;15.50;12.07;;;11.00;99.90;;;;;;7376223;19;20077;-72
2024/03/18 09:33:36;;;;;;;15.13;12.52;;;10.80;84.10;;;;;;7376695;19;20067;-72
2024/03/18 09:36:06;;;;;;;13.57;11.20;;;10.90;92.40;;;;;;7374148;19;20400;-72
2024/03/18 09:38:35;;;;;;;10.23;7.80;;;10.90;80.60;;;;;;7375226;19;20038;-72
2024/03/18 09:41:06;;;;;;;10.88;8.80;;;10.80;63.90;;;;;;7376533;19;20664;-72
2024/03/18 09:43:36;;;;;;;11.75;8.85;;;10.90;42.80;;;;;;7377874;19;20082;-72
2024/03/18 09:46:08;;;;;;;10.63;9.07;;;11.10;26.00;;;;;;7374721;19;20351;-71
2024/03/18 09:48:37;;;;;;;10.57;8.32;;;11.10;14.20;;;;;;7374443;19;20023;-71
2024/03/18 09:51:12;;;;;;;10.80;8.13;;;11.00;7.70;;;;;;7376612;19;20485;-71
2024/03/18 09:53:42;;;;;;;12.57;10.20;;;11.30;15.90;;;;;;7373771;19;20015;-72
2024/03/18 09:56:11;;;;;;;9.60;8.60;;;11.30;9.60;;;;;;7374951;19;20035;-72
2024/03/18 09:58:40;;;;;;;11.38;8.77;;;11.10;1.00;;;;;;7375689;19;20007;-72
2024/03/18 10:01:14;;;;;;;10.85;8.88;;;11.20;8.20;;;;;;7376017;19;20006;-72
2024/03/18 10:03:44;;;;;;;11.30;9.65;;;11.10;1.60;;;;;;7375862;19;20006;-72
2024/03/18 10:06:17;;;;;;;13.23;9.52;;;11.20;3.40;;;;;;7376864;19;20010;-72
2024/03/18 10:08:46;;;;;;;12.13;9.93;;;11.00;1.30;;;;;;7383881;19;20007;-71
2024/03/18 10:11:16;;;;;;;12.60;9.65;;;11.20;11.10;;;;;;7382646;19;20585;-72
2024/03/18 10:13:45;;;;;;;15.32;11.15;;;11.00;14.80;;;;;;7382090;19;20031;-72
2024/03/18 10:16:17;;;;;;;11.23;10.10;;;11.20;29.40;;;;;;7380388;19;20085;-71
2024/03/18 10:18:48;;;;;;;13.80;9.52;;;11.00;30.10;;;;;;7381618;19;20725;-72
2024/03/18 10:21:17;;;;;;;13.07;9.50;;;10.90;5.70;;;;;;7381737;19;20102;-72
2024/03/18 10:23:48;;;;;;;10.43;9.30;;;11.10;10.60;;;;;;7381326;19;19998;-71
2024/03/18 10:26:16;;;;;;;10.90;8.07;;;11.00;12.00;;;;;;7381650;19;20046;-72
2024/03/18 10:28:46;;;;;;;11.10;9.18;;;11.00;1.00;;;;;;7382274;19;20006;-71
2024/03/18 10:31:19;;;;;;;12.90;10.13;;;11.10;1.00;;;;;;7383459;19;20096;-71
2024/03/18 10:33:50;;;;;;;14.80;10.82;;;11.20;1.00;;;;;;7382259;19;20704;-71
2024/03/18 10:36:26;;;;;;;13.32;9.75;;;11.10;1.00;;;;;;7380209;19;20149;-71
2024/03/18 10:39:07;;;;;;;16.80;9.93;;;10.90;1.00;;;;;;7382398;19;20017;-71
2024/03/18 10:41:40;;;;;;;11.77;10.52;;;11.00;15.80;;;;;;7383461;19;20010;-72
2024/03/18 10:44:18;;;;;;;12.13;10.35;;;11.20;18.00;;;;;;7380712;19;20007;-71
2024/03/18 10:46:50;;;;;;;13.10;11.35;;;11.20;18.50;;;;;;7379698;19;20370;-71
2024/03/18 10:49:21;;;;;;;12.15;10.00;;;11.10;4.10;;;;;;7382574;19;20010;-71
2024/03/18 10:51:51;;;;;;;11.95;10.07;;;11.20;13.40;;;;;;7379508;19;20369;-71
2024/03/18 10:54:20;;;;;;;10.68;9.38;;;11.10;22.00;;;;;;7380071;19;20355;-72
2024/03/18 10:56:50;;;;;;;11.13;9.98;;;11.10;17.40;;;;;;7380080;19;20495;-72
2024/03/18 10:59:22;;;;;;;11.65;9.02;;;11.00;17.30;;;;;;7381700;19;20510;-72
2024/03/18 11:01:53;;;;;;;13.38;9.63;;;11.10;25.40;;;;;;7380424;19;20036;-71
2024/03/18 11:04:25;;;;;;;12.48;8.45;;;11.20;29.30;;;;;;7380804;19;20081;-72
2024/03/18 11:06:55;;;;;;;11.25;8.80;;;11.00;7.40;;;;;;7379354;19;20007;-71
2024/03/18 11:09:26;;;;;;;10.63;9.15;;;11.10;16.60;;;;;;7381531;19;20099;-71
2024/03/18 11:11:56;;;;;;;12.30;10.00;;;11.20;24.00;;;;;;7380247;19;20006;-71
2024/03/18 11:14:28;;;;;;;11.18;9.07;;;11.20;22.60;;;;;;7381602;19;20017;-72
2024/03/18 11:17:06;;;;;;;12.48;9.07;;;11.30;27.10;;;;;;7378074;19;20339;-72
2024/03/18 11:19:35;;;;;;;11.15;8.65;;;11.10;23.50;;;;;;7379455;19;20008;-72
2024/03/18 11:22:06;;;;;;;10.18;7.18;;;11.20;28.90;;;;;;7381128;19;20046;-72
2024/03/18 11:24:35;;;;;;;12.20;8.15;;;11.10;26.10;;;;;;7380240;19;20442;-72
2024/03/18 11:27:04;;;;;;;12.40;8.65;;;11.20;49.40;;;;;;7379322;19;20011;-72
2024/03/18 11:29:38;;;;;;;14.00;9.65;;;11.20;44.50;;;;;;7381499;19;20052;-72
2024/03/18 11:32:11;;;;;;;12.35;10.18;;;11.30;50.80;;;;;;7381494;19;20066;-71
2024/03/18 11:34:41;;;;;;;12.88;9.98;;;11.40;55.30;;;;;;7381340;19;20009;-72
2024/03/18 11:37:11;;;;;;;12.45;10.93;;;11.30;53.10;;;;;;7374148;19;20014;-71
2024/03/18 11:39:41;;;;;;;11.38;9.48;;;11.20;52.80;;;;;;7380913;19;20003;-71
2024/03/18 11:42:09;;;;;;;13.40;9.65;;;11.20;62.30;;;;;;7380504;19;20018;-71
2024/03/18 11:44:38;;;;;;;18.60;10.48;;;11.20;57.40;;;;;;7379229;19;20018;-71
2024/03/18 11:47:10;;;;;;;11.57;9.70;;;11.20;61.80;;;;;;7378736;19;20018;-71
2024/03/18 11:49:39;;;;;;;13.75;11.70;;;10.90;57.20;;;;;;7381081;19;20014;-71
2024/03/18 11:52:14;;;;;;;15.57;10.80;;;11.00;88.50;;;;;;7380774;19;20011;-72
2024/03/18 11:54:43;;;;;;;12.85;10.38;;;10.90;95.10;;;;;;7379785;19;20021;-72
2024/03/18 11:57:14;;;;;;;15.20;9.70;;;10.90;99.90;;;;;;7379444;19;19998;-73
2024/03/18 11:59:43;;;;;;;13.75;10.35;;;10.90;99.90;;;;;;7381205;19;20538;-73
2024/03/18 12:02:15;;;;;;;12.63;10.57;;;10.90;99.90;;;;;;7380554;19;20010;-73
2024/03/18 12:04:44;;;;;;;15.43;12.35;;;10.80;99.90;;;;;;7378904;19;20010;-73
2024/03/18 12:07:13;;;;;;;16.58;11.55;;;10.90;99.90;;;;;;7379898;19;20010;-73
2024/03/18 12:09:42;;;;;;;16.27;13.00;;;11.00;99.90;;;;;;7380529;19;20002;-73
2024/03/18 12:12:12;;;;;;;16.95;12.38;;;10.80;99.90;;;;;;7378522;19;20547;-73
2024/03/18 12:14:41;;;;;;;18.83;12.05;;;10.90;99.90;;;;;;7379462;19;20010;-73
2024/03/18 12:17:15;;;;;;;16.00;11.90;;;10.90;99.90;;;;;;7378330;19;20031;-72
2024/03/18 12:19:52;;;;;;;15.07;11.25;;;10.90;99.90;;;;;;7382479;19;20050;-72
2024/03/18 12:22:25;;;;;;;13.75;12.10;;;10.90;99.90;;;;;;7380295;19;20093;-74
2024/03/18 12:30:24;;;;;;;12.90;11.05;;;10.80;99.90;;;;;;7378696;19;20030;-72
2024/03/18 12:32:55;;;;;;;13.20;11.60;;;10.80;99.90;;;;;;7381870;19;20090;-72
2024/03/18 12:35:24;;;;;;;12.98;11.68;;;10.80;99.90;;;;;;7376518;19;20126;-73
2024/03/18 12:37:55;;;;;;;18.25;13.52;;;10.90;99.90;;;;;;7379336;19;20011;-72
2024/03/18 12:40:25;;;;;;;14.88;12.68;;;10.90;99.90;;;;;;7376879;19;20023;-72
2024/03/18 12:42:56;;;;;;;13.40;10.80;;;10.90;99.90;;;;;;7378901;19;20352;-73
2024/03/18 12:45:25;;;;;;;12.15;9.85;;;10.90;99.90;;;;;;7380034;19;20487;-73
2024/03/18 12:47:57;;;;;;;12.90;10.10;;;10.90;99.90;;;;;;7382024;19;20022;-74
2024/03/18 12:50:27;;;;;;;13.63;9.15;;;10.90;99.90;;;;;;7375806;19;20414;-75
2024/03/18 12:52:56;;;;;;;9.13;8.00;;;11.00;99.90;;;;;;7382618;19;20097;-74
2024/03/18 12:55:25;;;;;;;11.00;9.02;;;10.90;99.90;;;;;;7380340;19;20048;-75
2024/03/18 12:57:54;;;;;;;11.65;8.52;;;10.90;99.90;;;;;;7381192;19;20006;-74